sensor_id;sensor_type;location;lat;lon;timestamp;temperature;humidity
4566;DHT22;2295;51.050;14.608;2023-04-01T00:01:13;7.10;99.90
4566;DHT22;2295;51.050;14.608;2023-04-01T00:03:45;7.10;99.90
4566;DHT22;2295;51.050;14.608;2023-04-01T00:06:15;7.00;99.90
4566;DHT22;2295;51.050;14.608;2023-04-01T00:08:44;7.00;99.90
4566;DHT22;2295;51.050;14.608;2023-04-01T00:11:14;7.00;99.90
4566;DHT22;2295;51.050;14.608;2023-04-01T00:13:43;7.10;99.90
4566;DHT22;2295;51.050;14.608;2023-04-01T00:16:12;7.00;99.90
4566;DHT22;2295;51.050;14.608;2023-04-01T00:18:50;7.00;99.90
4566;DHT22;2295;51.050;14.608;2023-04-01T00:21:19;7.00;99.90
4566;DHT22;2295;51.050;14.608;2023-04-01T00:23:49;7.00;99.90
4566;DHT22;2295;51.050;14.608;2023-04-01T00:26:18;7.00;99.90
4566;DHT22;2295;51.050;14.608;2023-04-01T00:28:49;7.00;99.90
4566;DHT22;2295;51.050;14.608;2023-04-01T00:31:18;7.00;99.90
4566;DHT22;2295;51.050;14.608;2023-04-01T00:33:46;7.00;99.90
4566;DHT22;2295;51.050;14.608;2023-04-01T00:36:18;7.00;99.90
4566;DHT22;2295;51.050;14.608;2023-04-01T00:38:47;7.00;99.90
4566;DHT22;2295;51.050;14.608;2023-04-01T00:41:17;6.90;99.90
4566;DHT22;2295;51.050;14.608;2023-04-01T00:43:47;6.90;99.90
4566;DHT22;2295;51.050;14.608;2023-04-01T00:46:16;6.90;99.90
4566;DHT22;2295;51.050;14.608;2023-04-01T00:48:48;6.90;99.90
4566;DHT22;2295;51.050;14.608;2023-04-01T00:51:21;6.90;99.90
4566;DHT22;2295;51.050;14.608;2023-04-01T00:53:52;7.00;99.90
4566;DHT22;2295;51.050;14.608;2023-04-01T00:56:24;6.90;99.90
4566;DHT22;2295;51.050;14.608;2023-04-01T00:58:58;7.00;99.90
4566;DHT22;2295;51.050;14.608;2023-04-01T01:01:29;7.00;99.90
4566;DHT22;2295;51.050;14.608;2023-04-01T01:03:58;6.90;99.90
4566;DHT22;2295;51.050;14.608;2023-04-01T01:06:39;7.00;99.90
4566;DHT22;2295;51.050;14.608;2023-04-01T01:09:28;6.90;99.90
4566;DHT22;2295;51.050;14.608;2023-04-01T01:12:04;7.00;99.90
4566;DHT22;2295;51.050;14.608;2023-04-01T01:14:44;6.90;99.90
4566;DHT22;2295;51.050;14.608;2023-04-01T01:17:26;7.00;99.90
4566;DHT22;2295;51.050;14.608;2023-04-01T01:20:20;7.00;99.90
4566;DHT22;2295;51.050;14.608;2023-04-01T01:23:13;7.00;99.90
4566;DHT22;2295;51.050;14.608;2023-04-01T01:25:57;7.00;99.90
4566;DHT22;2295;51.050;14.608;2023-04-01T01:28:35;7.00;99.90
4566;DHT22;2295;51.050;14.608;2023-04-01T01:31:12;7.00;99.90
4566;DHT22;2295;51.050;14.608;2023-04-01T01:33:50;7.00;99.90
4566;DHT22;2295;51.050;14.608;2023-04-01T01:36:27;7.00;99.90
4566;DHT22;2295;51.050;14.608;2023-04-01T01:38:57;7.00;99.90
4566;DHT22;2295;51.050;14.608;2023-04-01T01:41:27;7.00;99.90
4566;DHT22;2295;51.050;14.608;2023-04-01T01:43:56;7.00;99.90
4566;DHT22;2295;51.050;14.608;2023-04-01T01:46:28;7.00;99.90
4566;DHT22;2295;51.050;14.608;2023-04-01T01:49:00;7.00;99.90
4566;DHT22;2295;51.050;14.608;2023-04-01T01:51:31;7.00;99.90
4566;DHT22;2295;51.050;14.608;2023-04-01T01:54:00;7.10;99.90
4566;DHT22;2295;51.050;14.608;2023-04-01T01:56:29;7.10;99.90
4566;DHT22;2295;51.050;14.608;2023-04-01T01:59:00;7.10;99.90
4566;DHT22;2295;51.050;14.608;2023-04-01T02:01:35;7.00;99.90
4566;DHT22;2295;51.050;14.608;2023-04-01T02:04:05;7.00;99.90
4566;DHT22;2295;51.050;14.608;2023-04-01T02:06:39;7.10;99.90
4566;DHT22;2295;51.050;14.608;2023-04-01T02:09:10;7.10;99.90
4566;DHT22;2295;51.050;14.608;2023-04-01T02:11:43;7.00;99.90
4566;DHT22;2295;51.050;14.608;2023-04-01T02:14:17;7.10;99.90
4566;DHT22;2295;51.050;14.608;2023-04-01T02:16:51;7.10;99.90
4566;DHT22;2295;51.050;14.608;2023-04-01T02:19:21;7.10;99.90
4566;DHT22;2295;51.050;14.608;2023-04-01T02:21:56;7.10;99.90
4566;DHT22;2295;51.050;14.608;2023-04-01T02:24:28;7.10;99.90
4566;DHT22;2295;51.050;14.608;2023-04-01T02:26:57;7.10;99.90
4566;DHT22;2295;51.050;14.608;2023-04-01T02:29:27;7.10;99.90
4566;DHT22;2295;51.050;14.608;2023-04-01T02:31:56;7.10;99.90
4566;DHT22;2295;51.050;14.608;2023-04-01T02:34:28;7.10;99.90
4566;DHT22;2295;51.050;14.608;2023-04-01T02:36:58;7.10;99.90
4566;DHT22;2295;51.050;14.608;2023-04-01T02:39:27;7.10;99.90
4566;DHT22;2295;51.050;14.608;2023-04-01T02:41:58;7.10;99.90
4566;DHT22;2295;51.050;14.608;2023-04-01T02:44:28;7.10;99.90
4566;DHT22;2295;51.050;14.608;2023-04-01T02:46:56;7.10;99.90
4566;DHT22;2295;51.050;14.608;2023-04-01T02:49:25;7.10;99.90
4566;DHT22;2295;51.050;14.608;2023-04-01T02:51:53;7.10;99.90
4566;DHT22;2295;51.050;14.608;2023-04-01T02:54:23;7.00;99.90
4566;DHT22;2295;51.050;14.608;2023-04-01T02:56:51;7.10;99.90
4566;DHT22;2295;51.050;14.608;2023-04-01T02:59:20;7.10;99.90
4566;DHT22;2295;51.050;14.608;2023-04-01T03:01:48;7.10;99.90
4566;DHT22;2295;51.050;14.608;2023-04-01T03:04:17;7.00;99.90
4566;DHT22;2295;51.050;14.608;2023-04-01T03:06:45;7.10;99.90
4566;DHT22;2295;51.050;14.608;2023-04-01T03:09:14;7.10;99.90
4566;DHT22;2295;51.050;14.608;2023-04-01T03:11:44;7.10;99.90
4566;DHT22;2295;51.050;14.608;2023-04-01T03:14:12;7.00;99.90
4566;DHT22;2295;51.050;14.608;2023-04-01T03:16:41;7.00;99.90
4566;DHT22;2295;51.050;14.608;2023-04-01T03:19:10;7.00;99.90
4566;DHT22;2295;51.050;14.608;2023-04-01T03:21:38;7.10;99.90
4566;DHT22;2295;51.050;14.608;2023-04-01T03:24:07;7.00;99.90
4566;DHT22;2295;51.050;14.608;2023-04-01T03:26:37;7.10;99.90
4566;DHT22;2295;51.050;14.608;2023-04-01T03:29:06;7.00;99.90
4566;DHT22;2295;51.050;14.608;2023-04-01T03:31:35;7.00;99.90
4566;DHT22;2295;51.050;14.608;2023-04-01T03:34:04;7.00;99.90
4566;DHT22;2295;51.050;14.608;2023-04-01T03:36:32;7.00;99.90
4566;DHT22;2295;51.050;14.608;2023-04-01T03:39:03;7.00;99.90
4566;DHT22;2295;51.050;14.608;2023-04-01T03:41:35;7.00;99.90
4566;DHT22;2295;51.050;14.608;2023-04-01T03:44:06;7.00;99.90
4566;DHT22;2295;51.050;14.608;2023-04-01T03:46:34;7.00;99.90
4566;DHT22;2295;51.050;14.608;2023-04-01T03:49:05;7.00;99.90
4566;DHT22;2295;51.050;14.608;2023-04-01T03:51:39;7.00;99.90
4566;DHT22;2295;51.050;14.608;2023-04-01T03:54:11;7.00;99.90
4566;DHT22;2295;51.050;14.608;2023-04-01T03:56:40;7.00;99.90
4566;DHT22;2295;51.050;14.608;2023-04-01T03:59:10;6.90;99.90
4566;DHT22;2295;51.050;14.608;2023-04-01T04:01:38;6.90;99.90
4566;DHT22;2295;51.050;14.608;2023-04-01T04:04:06;6.90;99.90
4566;DHT22;2295;51.050;14.608;2023-04-01T04:06:35;6.90;99.90
4566;DHT22;2295;51.050;14.608;2023-04-01T04:09:03;6.90;99.90
4566;DHT22;2295;51.050;14.608;2023-04-01T04:11:39;6.90;99.90
4566;DHT22;2295;51.050;14.608;2023-04-01T04:14:10;7.00;99.90
4566;DHT22;2295;51.050;14.608;2023-04-01T04:16:39;7.00;99.90
4566;DHT22;2295;51.050;14.608;2023-04-01T04:19:07;7.00;99.90
4566;DHT22;2295;51.050;14.608;2023-04-01T04:21:36;7.00;99.90
4566;DHT22;2295;51.050;14.608;2023-04-01T04:24:05;7.00;99.90
4566;DHT22;2295;51.050;14.608;2023-04-01T04:26:36;7.00;99.90
4566;DHT22;2295;51.050;14.608;2023-04-01T04:29:04;6.90;99.90
4566;DHT22;2295;51.050;14.608;2023-04-01T04:31:36;7.00;99.90
4566;DHT22;2295;51.050;14.608;2023-04-01T04:34:05;7.00;99.90
4566;DHT22;2295;51.050;14.608;2023-04-01T04:36:34;7.00;99.90
4566;DHT22;2295;51.050;14.608;2023-04-01T04:39:03;7.00;99.90
4566;DHT22;2295;51.050;14.608;2023-04-01T04:41:31;7.00;99.90
4566;DHT22;2295;51.050;14.608;2023-04-01T04:44:04;7.00;99.90
4566;DHT22;2295;51.050;14.608;2023-04-01T04:46:34;7.00;99.90
4566;DHT22;2295;51.050;14.608;2023-04-01T04:49:04;7.00;99.90
4566;DHT22;2295;51.050;14.608;2023-04-01T04:51:37;7.00;99.90
4566;DHT22;2295;51.050;14.608;2023-04-01T04:54:07;7.00;99.90
4566;DHT22;2295;51.050;14.608;2023-04-01T04:56:36;7.00;99.90
4566;DHT22;2295;51.050;14.608;2023-04-01T04:59:05;7.00;99.90
4566;DHT22;2295;51.050;14.608;2023-04-01T05:01:35;7.00;99.90
4566;DHT22;2295;51.050;14.608;2023-04-01T05:04:04;7.10;99.90
4566;DHT22;2295;51.050;14.608;2023-04-01T05:06:33;7.10;99.90
4566;DHT22;2295;51.050;14.608;2023-04-01T05:09:02;7.10;99.90
4566;DHT22;2295;51.050;14.608;2023-04-01T05:11:30;7.10;99.90
4566;DHT22;2295;51.050;14.608;2023-04-01T05:13:59;7.10;99.90
4566;DHT22;2295;51.050;14.608;2023-04-01T05:16:28;7.20;99.90
4566;DHT22;2295;51.050;14.608;2023-04-01T05:18:59;7.20;99.90
4566;DHT22;2295;51.050;14.608;2023-04-01T05:21:28;7.10;99.90
4566;DHT22;2295;51.050;14.608;2023-04-01T05:23:56;7.10;99.90
4566;DHT22;2295;51.050;14.608;2023-04-01T05:26:24;7.10;99.90
4566;DHT22;2295;51.050;14.608;2023-04-01T05:28:53;7.10;99.90
4566;DHT22;2295;51.050;14.608;2023-04-01T05:31:21;7.10;99.90
4566;DHT22;2295;51.050;14.608;2023-04-01T05:33:51;7.10;99.90
4566;DHT22;2295;51.050;14.608;2023-04-01T05:36:21;7.10;99.90
4566;DHT22;2295;51.050;14.608;2023-04-01T05:38:50;7.10;99.90
4566;DHT22;2295;51.050;14.608;2023-04-01T05:41:18;7.10;99.90
4566;DHT22;2295;51.050;14.608;2023-04-01T05:43:46;7.10;99.90
4566;DHT22;2295;51.050;14.608;2023-04-01T05:46:15;7.10;99.90
4566;DHT22;2295;51.050;14.608;2023-04-01T05:48:43;7.20;99.90
4566;DHT22;2295;51.050;14.608;2023-04-01T05:51:12;7.20;99.90
4566;DHT22;2295;51.050;14.608;2023-04-01T05:53:43;7.20;99.90
4566;DHT22;2295;51.050;14.608;2023-04-01T05:56:11;7.20;99.90
4566;DHT22;2295;51.050;14.608;2023-04-01T05:58:40;7.20;99.90
4566;DHT22;2295;51.050;14.608;2023-04-01T06:01:11;7.30;99.90
4566;DHT22;2295;51.050;14.608;2023-04-01T06:03:42;7.30;99.90
4566;DHT22;2295;51.050;14.608;2023-04-01T06:06:14;7.30;99.90
4566;DHT22;2295;51.050;14.608;2023-04-01T06:08:44;7.30;99.90
4566;DHT22;2295;51.050;14.608;2023-04-01T06:11:22;7.40;99.90
4566;DHT22;2295;51.050;14.608;2023-04-01T06:14:10;7.40;99.90
4566;DHT22;2295;51.050;14.608;2023-04-01T06:17:05;7.40;99.90
4566;DHT22;2295;51.050;14.608;2023-04-01T06:19:44;7.60;99.90
4566;DHT22;2295;51.050;14.608;2023-04-01T06:22:38;7.60;99.90
4566;DHT22;2295;51.050;14.608;2023-04-01T06:25:24;7.70;99.90
4566;DHT22;2295;51.050;14.608;2023-04-01T06:28:18;7.70;99.90
4566;DHT22;2295;51.050;14.608;2023-04-01T06:30:54;7.80;99.90
4566;DHT22;2295;51.050;14.608;2023-04-01T06:33:39;7.90;99.90
4566;DHT22;2295;51.050;14.608;2023-04-01T06:36:30;8.00;99.90
4566;DHT22;2295;51.050;14.608;2023-04-01T06:42:15;8.20;99.90
4566;DHT22;2295;51.050;14.608;2023-04-01T06:44:57;8.30;99.90
4566;DHT22;2295;51.050;14.608;2023-04-01T06:47:40;8.30;99.90
4566;DHT22;2295;51.050;14.608;2023-04-01T06:50:19;8.20;99.90
4566;DHT22;2295;51.050;14.608;2023-04-01T06:52:55;8.20;99.90
4566;DHT22;2295;51.050;14.608;2023-04-01T06:55:32;8.30;99.90
4566;DHT22;2295;51.050;14.608;2023-04-01T06:58:13;8.30;99.90
4566;DHT22;2295;51.050;14.608;2023-04-01T07:00:49;8.30;99.90
4566;DHT22;2295;51.050;14.608;2023-04-01T07:03:22;8.50;99.90
4566;DHT22;2295;51.050;14.608;2023-04-01T07:06:00;8.60;99.90
4566;DHT22;2295;51.050;14.608;2023-04-01T07:08:33;8.90;99.90
4566;DHT22;2295;51.050;14.608;2023-04-01T07:11:04;9.10;99.90
4566;DHT22;2295;51.050;14.608;2023-04-01T07:13:39;9.20;99.90
4566;DHT22;2295;51.050;14.608;2023-04-01T07:16:12;9.40;99.90
4566;DHT22;2295;51.050;14.608;2023-04-01T07:18:45;9.60;99.90
4566;DHT22;2295;51.050;14.608;2023-04-01T07:21:23;9.70;99.90
4566;DHT22;2295;51.050;14.608;2023-04-01T07:23:56;9.60;99.90
4566;DHT22;2295;51.050;14.608;2023-04-01T07:26:28;9.60;99.90
4566;DHT22;2295;51.050;14.608;2023-04-01T07:28:58;9.60;99.90
4566;DHT22;2295;51.050;14.608;2023-04-01T07:34:25;9.50;99.90
4566;DHT22;2295;51.050;14.608;2023-04-01T07:37:02;9.50;99.90
4566;DHT22;2295;51.050;14.608;2023-04-01T07:39:41;9.70;99.90
4566;DHT22;2295;51.050;14.608;2023-04-01T07:42:17;9.80;99.90
4566;DHT22;2295;51.050;14.608;2023-04-01T07:44:57;9.80;99.90
4566;DHT22;2295;51.050;14.608;2023-04-01T07:47:59;9.80;99.90
4566;DHT22;2295;51.050;14.608;2023-04-01T07:50:34;10.00;99.90
4566;DHT22;2295;51.050;14.608;2023-04-01T07:53:11;10.10;99.90
4566;DHT22;2295;51.050;14.608;2023-04-01T07:55:45;10.20;99.90
4566;DHT22;2295;51.050;14.608;2023-04-01T07:58:19;10.50;99.90
4566;DHT22;2295;51.050;14.608;2023-04-01T08:00:57;11.00;99.90
4566;DHT22;2295;51.050;14.608;2023-04-01T08:03:38;11.30;99.90
4566;DHT22;2295;51.050;14.608;2023-04-01T08:06:14;11.30;99.90
4566;DHT22;2295;51.050;14.608;2023-04-01T08:08:56;11.00;99.90
4566;DHT22;2295;51.050;14.608;2023-04-01T08:11:35;10.70;99.90
4566;DHT22;2295;51.050;14.608;2023-04-01T08:14:15;10.40;99.90
4566;DHT22;2295;51.050;14.608;2023-04-01T08:16:52;10.20;99.90
4566;DHT22;2295;51.050;14.608;2023-04-01T08:19:35;10.10;99.90
4566;DHT22;2295;51.050;14.608;2023-04-01T08:22:11;10.00;99.90
4566;DHT22;2295;51.050;14.608;2023-04-01T08:24:45;10.00;99.90
4566;DHT22;2295;51.050;14.608;2023-04-01T08:27:20;10.10;99.90
4566;DHT22;2295;51.050;14.608;2023-04-01T08:29:53;10.30;99.90
4566;DHT22;2295;51.050;14.608;2023-04-01T08:32:28;10.40;99.90
4566;DHT22;2295;51.050;14.608;2023-04-01T08:35:06;10.50;99.90
4566;DHT22;2295;51.050;14.608;2023-04-01T08:37:38;10.60;99.90
4566;DHT22;2295;51.050;14.608;2023-04-01T08:40:28;10.70;99.90
4566;DHT22;2295;51.050;14.608;2023-04-01T08:43:09;10.60;99.90
4566;DHT22;2295;51.050;14.608;2023-04-01T08:45:47;10.60;99.90
4566;DHT22;2295;51.050;14.608;2023-04-01T08:49:03;10.40;99.90
4566;DHT22;2295;51.050;14.608;2023-04-01T08:54:44;10.10;99.90
4566;DHT22;2295;51.050;14.608;2023-04-01T08:57:20;10.00;99.90
4566;DHT22;2295;51.050;14.608;2023-04-01T09:00:14;10.00;99.90
4566;DHT22;2295;51.050;14.608;2023-04-01T09:03:00;10.00;99.90
4566;DHT22;2295;51.050;14.608;2023-04-01T09:05:42;10.00;99.90
4566;DHT22;2295;51.050;14.608;2023-04-01T09:08:28;10.10;99.90
4566;DHT22;2295;51.050;14.608;2023-04-01T09:11:16;10.10;99.90
4566;DHT22;2295;51.050;14.608;2023-04-01T09:14:07;10.30;99.90
4566;DHT22;2295;51.050;14.608;2023-04-01T09:16:59;10.40;99.90
4566;DHT22;2295;51.050;14.608;2023-04-01T09:19:36;10.80;99.90
4566;DHT22;2295;51.050;14.608;2023-04-01T09:22:24;11.30;99.90
4566;DHT22;2295;51.050;14.608;2023-04-01T09:25:26;12.00;99.90
4566;DHT22;2295;51.050;14.608;2023-04-01T09:28:07;13.00;99.90
4566;DHT22;2295;51.050;14.608;2023-04-01T09:31:00;12.60;99.90
4566;DHT22;2295;51.050;14.608;2023-04-01T09:33:58;12.40;99.90
4566;DHT22;2295;51.050;14.608;2023-04-01T09:36:43;12.10;99.90
4566;DHT22;2295;51.050;14.608;2023-04-01T09:39:37;11.80;99.90
4566;DHT22;2295;51.050;14.608;2023-04-01T09:42:21;11.70;99.90
4566;DHT22;2295;51.050;14.608;2023-04-01T09:44:58;11.60;99.90
4566;DHT22;2295;51.050;14.608;2023-04-01T09:47:43;11.80;99.90
4566;DHT22;2295;51.050;14.608;2023-04-01T09:50:31;12.00;99.90
4566;DHT22;2295;51.050;14.608;2023-04-01T09:53:11;12.40;99.90
4566;DHT22;2295;51.050;14.608;2023-04-01T09:59:21;13.40;99.90
4566;DHT22;2295;51.050;14.608;2023-04-01T10:02:12;13.80;99.90
4566;DHT22;2295;51.050;14.608;2023-04-01T10:05:15;14.20;99.90
4566;DHT22;2295;51.050;14.608;2023-04-01T10:08:07;14.00;99.90
4566;DHT22;2295;51.050;14.608;2023-04-01T10:11:02;13.60;99.90
4566;DHT22;2295;51.050;14.608;2023-04-01T10:20:12;12.40;99.90
4566;DHT22;2295;51.050;14.608;2023-04-01T10:23:19;12.40;99.90
4566;DHT22;2295;51.050;14.608;2023-04-01T10:26:17;12.50;99.90
4566;DHT22;2295;51.050;14.608;2023-04-01T10:38:08;15.30;99.90
4566;DHT22;2295;51.050;14.608;2023-04-01T10:41:15;15.00;99.90
4566;DHT22;2295;51.050;14.608;2023-04-01T10:47:16;14.10;99.90
4566;DHT22;2295;51.050;14.608;2023-04-01T10:52:59;13.40;99.90
4566;DHT22;2295;51.050;14.608;2023-04-01T10:55:50;13.00;99.90
4566;DHT22;2295;51.050;14.608;2023-04-01T11:01:54;12.10;99.90
4566;DHT22;2295;51.050;14.608;2023-04-01T11:05:06;11.80;99.90
4566;DHT22;2295;51.050;14.608;2023-04-01T11:11:15;11.20;99.90
4566;DHT22;2295;51.050;14.608;2023-04-01T11:14:07;11.40;99.90
4566;DHT22;2295;51.050;14.608;2023-04-01T11:20:14;13.70;99.90
4566;DHT22;2295;51.050;14.608;2023-04-01T11:26:00;14.70;99.90
4566;DHT22;2295;51.050;14.608;2023-04-01T11:31:50;13.40;99.90
4566;DHT22;2295;51.050;14.608;2023-04-01T11:34:37;13.00;99.90
4566;DHT22;2295;51.050;14.608;2023-04-01T11:37:19;12.60;99.90
4566;DHT22;2295;51.050;14.608;2023-04-01T11:39:59;12.10;99.90
4566;DHT22;2295;51.050;14.608;2023-04-01T11:42:37;11.90;99.90
4566;DHT22;2295;51.050;14.608;2023-04-01T11:45:17;11.80;99.90
4566;DHT22;2295;51.050;14.608;2023-04-01T11:48:07;11.90;99.90
4566;DHT22;2295;51.050;14.608;2023-04-01T11:50:53;11.90;99.90
4566;DHT22;2295;51.050;14.608;2023-04-01T11:53:35;11.80;99.90
4566;DHT22;2295;51.050;14.608;2023-04-01T11:56:18;11.70;99.90
4566;DHT22;2295;51.050;14.608;2023-04-01T11:59:16;11.80;99.90
4566;DHT22;2295;51.050;14.608;2023-04-01T12:01:55;11.90;99.90
4566;DHT22;2295;51.050;14.608;2023-04-01T12:05:03;11.90;99.90
4566;DHT22;2295;51.050;14.608;2023-04-01T12:07:53;11.90;99.90
4566;DHT22;2295;51.050;14.608;2023-04-01T12:10:28;12.00;99.90
4566;DHT22;2295;51.050;14.608;2023-04-01T12:13:07;12.30;99.90
4566;DHT22;2295;51.050;14.608;2023-04-01T12:15:50;12.70;99.90
4566;DHT22;2295;51.050;14.608;2023-04-01T12:18:27;13.30;99.90
4566;DHT22;2295;51.050;14.608;2023-04-01T12:21:11;14.20;99.90
4566;DHT22;2295;51.050;14.608;2023-04-01T12:24:00;14.50;99.90
4566;DHT22;2295;51.050;14.608;2023-04-01T12:26:51;14.30;99.90
4566;DHT22;2295;51.050;14.608;2023-04-01T12:29:40;14.20;99.90
4566;DHT22;2295;51.050;14.608;2023-04-01T12:32:18;14.40;99.90
4566;DHT22;2295;51.050;14.608;2023-04-01T12:34:59;14.40;99.90
4566;DHT22;2295;51.050;14.608;2023-04-01T12:37:39;14.20;99.90
4566;DHT22;2295;51.050;14.608;2023-04-01T12:40:36;14.20;99.90
4566;DHT22;2295;51.050;14.608;2023-04-01T12:43:21;14.80;99.90
4566;DHT22;2295;51.050;14.608;2023-04-01T12:46:01;15.50;99.90
4566;DHT22;2295;51.050;14.608;2023-04-01T12:49:04;15.70;99.90
4566;DHT22;2295;51.050;14.608;2023-04-01T12:51:45;15.70;99.90
4566;DHT22;2295;51.050;14.608;2023-04-01T12:55:05;15.40;99.90
4566;DHT22;2295;51.050;14.608;2023-04-01T13:01:16;14.10;99.90
4566;DHT22;2295;51.050;14.608;2023-04-01T13:04:24;13.90;99.90
4566;DHT22;2295;51.050;14.608;2023-04-01T13:07:09;14.30;99.90
4566;DHT22;2295;51.050;14.608;2023-04-01T13:09:47;14.70;99.90
4566;DHT22;2295;51.050;14.608;2023-04-01T13:12:40;14.70;99.90
4566;DHT22;2295;51.050;14.608;2023-04-01T13:15:28;14.20;99.90
4566;DHT22;2295;51.050;14.608;2023-04-01T13:18:07;14.00;99.90
4566;DHT22;2295;51.050;14.608;2023-04-01T13:20:46;14.10;99.90
4566;DHT22;2295;51.050;14.608;2023-04-01T13:23:33;14.10;99.90
4566;DHT22;2295;51.050;14.608;2023-04-01T13:26:11;14.00;99.90
4566;DHT22;2295;51.050;14.608;2023-04-01T13:28:49;13.90;99.90
4566;DHT22;2295;51.050;14.608;2023-04-01T13:34:24;13.90;99.90
4566;DHT22;2295;51.050;14.608;2023-04-01T13:37:02;13.70;99.90
4566;DHT22;2295;51.050;14.608;2023-04-01T13:40:01;13.80;99.90
4566;DHT22;2295;51.050;14.608;2023-04-01T13:42:35;13.90;99.90
4566;DHT22;2295;51.050;14.608;2023-04-01T13:45:14;14.10;99.90
4566;DHT22;2295;51.050;14.608;2023-04-01T13:51:07;14.30;99.90
4566;DHT22;2295;51.050;14.608;2023-04-01T13:54:08;14.10;99.90
4566;DHT22;2295;51.050;14.608;2023-04-01T13:56:50;14.00;99.90
4566;DHT22;2295;51.050;14.608;2023-04-01T13:59:39;14.40;99.90
4566;DHT22;2295;51.050;14.608;2023-04-01T14:02:36;14.90;99.90
4566;DHT22;2295;51.050;14.608;2023-04-01T14:08:20;15.50;99.90
4566;DHT22;2295;51.050;14.608;2023-04-01T14:10:58;15.60;99.90
4566;DHT22;2295;51.050;14.608;2023-04-01T14:13:37;15.50;99.90
4566;DHT22;2295;51.050;14.608;2023-04-01T14:16:23;15.40;99.90
4566;DHT22;2295;51.050;14.608;2023-04-01T14:19:11;15.40;99.90
4566;DHT22;2295;51.050;14.608;2023-04-01T14:21:53;15.20;99.90
4566;DHT22;2295;51.050;14.608;2023-04-01T14:24:36;14.80;99.90
4566;DHT22;2295;51.050;14.608;2023-04-01T14:27:31;14.90;99.90
4566;DHT22;2295;51.050;14.608;2023-04-01T14:30:19;15.00;99.90
4566;DHT22;2295;51.050;14.608;2023-04-01T14:32:54;15.10;99.90
4566;DHT22;2295;51.050;14.608;2023-04-01T14:35:37;14.90;99.90
4566;DHT22;2295;51.050;14.608;2023-04-01T14:38:42;14.50;99.90
4566;DHT22;2295;51.050;14.608;2023-04-01T14:41:20;14.20;99.90
4566;DHT22;2295;51.050;14.608;2023-04-01T14:44:16;13.90;99.90
4566;DHT22;2295;51.050;14.608;2023-04-01T14:47:24;13.60;99.90
4566;DHT22;2295;51.050;14.608;2023-04-01T14:50:06;13.50;99.90
4566;DHT22;2295;51.050;14.608;2023-04-01T14:52:39;13.50;99.90
4566;DHT22;2295;51.050;14.608;2023-04-01T14:58:10;13.10;99.90
4566;DHT22;2295;51.050;14.608;2023-04-01T15:00:51;12.70;99.90
4566;DHT22;2295;51.050;14.608;2023-04-01T15:03:28;12.40;99.90
4566;DHT22;2295;51.050;14.608;2023-04-01T15:06:15;12.10;99.90
4566;DHT22;2295;51.050;14.608;2023-04-01T15:08:55;12.00;99.90
4566;DHT22;2295;51.050;14.608;2023-04-01T15:11:48;12.10;99.90
4566;DHT22;2295;51.050;14.608;2023-04-01T15:14:37;12.30;99.90
4566;DHT22;2295;51.050;14.608;2023-04-01T15:17:23;12.70;99.90
4566;DHT22;2295;51.050;14.608;2023-04-01T15:20:12;13.10;99.90
4566;DHT22;2295;51.050;14.608;2023-04-01T15:23:08;13.60;99.90
4566;DHT22;2295;51.050;14.608;2023-04-01T15:28:38;16.10;99.90
4566;DHT22;2295;51.050;14.608;2023-04-01T15:31:15;16.60;99.90
4566;DHT22;2295;51.050;14.608;2023-04-01T15:34:07;16.80;99.90
4566;DHT22;2295;51.050;14.608;2023-04-01T15:36:42;16.80;99.50
4566;DHT22;2295;51.050;14.608;2023-04-01T15:39:14;15.60;99.70
4566;DHT22;2295;51.050;14.608;2023-04-01T15:42:02;14.30;99.90
4566;DHT22;2295;51.050;14.608;2023-04-01T15:47:37;12.60;99.90
4566;DHT22;2295;51.050;14.608;2023-04-01T15:53:36;11.70;99.90
4566;DHT22;2295;51.050;14.608;2023-04-01T15:56:26;11.50;99.90
4566;DHT22;2295;51.050;14.608;2023-04-01T15:59:19;11.30;99.90
4566;DHT22;2295;51.050;14.608;2023-04-01T16:01:55;11.30;99.90
4566;DHT22;2295;51.050;14.608;2023-04-01T16:04:39;11.30;99.90
4566;DHT22;2295;51.050;14.608;2023-04-01T16:07:30;11.30;99.90
4566;DHT22;2295;51.050;14.608;2023-04-01T16:10:18;11.20;99.90
4566;DHT22;2295;51.050;14.608;2023-04-01T16:12:57;11.20;99.90
4566;DHT22;2295;51.050;14.608;2023-04-01T16:15:39;11.10;99.90
4566;DHT22;2295;51.050;14.608;2023-04-01T16:18:41;11.00;99.90
4566;DHT22;2295;51.050;14.608;2023-04-01T16:21:14;10.80;99.90
4566;DHT22;2295;51.050;14.608;2023-04-01T16:23:51;10.70;99.90
4566;DHT22;2295;51.050;14.608;2023-04-01T16:26:27;10.60;99.90
4566;DHT22;2295;51.050;14.608;2023-04-01T16:29:08;10.50;99.90
4566;DHT22;2295;51.050;14.608;2023-04-01T16:31:43;10.40;99.90
4566;DHT22;2295;51.050;14.608;2023-04-01T16:34:17;10.40;99.90
4566;DHT22;2295;51.050;14.608;2023-04-01T16:36:55;10.40;99.90
4566;DHT22;2295;51.050;14.608;2023-04-01T16:39:41;10.30;99.90
4566;DHT22;2295;51.050;14.608;2023-04-01T16:42:32;10.30;99.90
4566;DHT22;2295;51.050;14.608;2023-04-01T16:45:17;10.30;99.90
4566;DHT22;2295;51.050;14.608;2023-04-01T16:48:01;10.20;99.90
4566;DHT22;2295;51.050;14.608;2023-04-01T16:50:44;10.20;99.90
4566;DHT22;2295;51.050;14.608;2023-04-01T16:53:19;10.10;99.90
4566;DHT22;2295;51.050;14.608;2023-04-01T16:55:55;10.10;99.90
4566;DHT22;2295;51.050;14.608;2023-04-01T16:58:33;10.00;99.90
4566;DHT22;2295;51.050;14.608;2023-04-01T17:01:06;10.00;99.90
4566;DHT22;2295;51.050;14.608;2023-04-01T17:03:46;9.90;99.90
4566;DHT22;2295;51.050;14.608;2023-04-01T17:06:25;9.80;99.90
4566;DHT22;2295;51.050;14.608;2023-04-01T17:09:19;9.80;99.90
4566;DHT22;2295;51.050;14.608;2023-04-01T17:11:57;9.80;99.90
4566;DHT22;2295;51.050;14.608;2023-04-01T17:14:30;9.70;99.90
4566;DHT22;2295;51.050;14.608;2023-04-01T17:17:18;9.60;99.90
4566;DHT22;2295;51.050;14.608;2023-04-01T17:20:10;9.60;99.90
4566;DHT22;2295;51.050;14.608;2023-04-01T17:22:49;9.50;99.90
4566;DHT22;2295;51.050;14.608;2023-04-01T17:25:29;9.50;99.90
4566;DHT22;2295;51.050;14.608;2023-04-01T17:28:08;9.50;99.90
4566;DHT22;2295;51.050;14.608;2023-04-01T17:30:41;9.40;99.90
4566;DHT22;2295;51.050;14.608;2023-04-01T17:36:32;9.40;99.90
4566;DHT22;2295;51.050;14.608;2023-04-01T17:39:23;9.40;99.90
4566;DHT22;2295;51.050;14.608;2023-04-01T17:42:00;9.10;99.90
4566;DHT22;2295;51.050;14.608;2023-04-01T17:44:44;8.90;99.90
4566;DHT22;2295;51.050;14.608;2023-04-01T17:47:37;8.80;99.90
4566;DHT22;2295;51.050;14.608;2023-04-01T17:50:24;8.60;99.90
4566;DHT22;2295;51.050;14.608;2023-04-01T17:53:02;8.50;99.90
4566;DHT22;2295;51.050;14.608;2023-04-01T17:55:49;8.40;99.90
4566;DHT22;2295;51.050;14.608;2023-04-01T17:58:20;8.40;99.90
4566;DHT22;2295;51.050;14.608;2023-04-01T18:01:06;8.30;99.90
4566;DHT22;2295;51.050;14.608;2023-04-01T18:06:52;8.20;99.90
4566;DHT22;2295;51.050;14.608;2023-04-01T18:09:39;8.20;99.90
4566;DHT22;2295;51.050;14.608;2023-04-01T18:12:24;8.20;99.90
4566;DHT22;2295;51.050;14.608;2023-04-01T18:15:17;8.10;99.90
4566;DHT22;2295;51.050;14.608;2023-04-01T18:17:57;8.10;99.90
4566;DHT22;2295;51.050;14.608;2023-04-01T18:20:43;8.10;99.90
4566;DHT22;2295;51.050;14.608;2023-04-01T18:23:26;8.10;99.90
4566;DHT22;2295;51.050;14.608;2023-04-01T18:26:05;8.10;99.90
4566;DHT22;2295;51.050;14.608;2023-04-01T18:28:39;8.10;99.90
4566;DHT22;2295;51.050;14.608;2023-04-01T18:31:14;8.10;99.90